sensor_id;sensor_type;location;lat;lon;timestamp;pressure;altitude;pressure_sealevel;temperature;humidity
46574;BME280;32299;53.366;-1.544;2022-09-13T00:01:03;98589.71;;;17.79;41.95
46574;BME280;32299;53.366;-1.544;2022-09-13T00:03:31;98590.54;;;17.80;41.92
46574;BME280;32299;53.366;-1.544;2022-09-13T00:06:07;98581.81;;;17.80;41.92
46574;BME280;32299;53.366;-1.544;2022-09-13T00:08:34;98577.12;;;17.78;41.82
46574;BME280;32299;53.366;-1.544;2022-09-13T00:11:01;98579.99;;;17.79;41.77
46574;BME280;32299;53.366;-1.544;2022-09-13T00:13:29;98577.40;;;17.77;41.68
46574;BME280;32299;53.366;-1.544;2022-09-13T00:15:56;98576.63;;;17.76;41.57
46574;BME280;32299;53.366;-1.544;2022-09-13T00:18:23;98574.39;;;17.72;41.52
46574;BME280;32299;53.366;-1.544;2022-09-13T00:20:50;98573.88;;;17.70;41.50
46574;BME280;32299;53.366;-1.544;2022-09-13T00:23:17;98574.47;;;17.66;41.44
46574;BME280;32299;53.366;-1.544;2022-09-13T00:25:44;98572.86;;;17.60;41.40
46574;BME280;32299;53.366;-1.544;2022-09-13T00:28:12;98569.36;;;17.53;41.30
46574;BME280;32299;53.366;-1.544;2022-09-13T00:30:39;98566.41;;;17.50;41.32
46574;BME280;32299;53.366;-1.544;2022-09-13T00:33:06;98567.66;;;17.44;41.21
46574;BME280;32299;53.366;-1.544;2022-09-13T00:35:33;98570.91;;;17.39;41.32
46574;BME280;32299;53.366;-1.544;2022-09-13T00:38:00;98570.63;;;17.35;41.43
46574;BME280;32299;53.366;-1.544;2022-09-13T00:40:27;98572.38;;;17.33;41.38
46574;BME280;32299;53.366;-1.544;2022-09-13T00:42:54;98576.22;;;17.30;41.35
46574;BME280;32299;53.366;-1.544;2022-09-13T00:45:22;98578.03;;;17.27;41.45
46574;BME280;32299;53.366;-1.544;2022-09-13T00:47:54;98575.20;;;17.24;41.38
46574;BME280;32299;53.366;-1.544;2022-09-13T00:50:27;98571.31;;;17.20;41.46
46574;BME280;32299;53.366;-1.544;2022-09-13T00:53:00;98567.95;;;17.15;41.41
46574;BME280;32299;53.366;-1.544;2022-09-13T00:55:33;98565.80;;;17.11;41.50
46574;BME280;32299;53.366;-1.544;2022-09-13T00:58:05;98563.97;;;17.55;41.44
46574;BME280;32299;53.366;-1.544;2022-09-13T01:00:35;98564.67;;;17.04;41.38
46574;BME280;32299;53.366;-1.544;2022-09-13T01:03:05;98567.24;;;17.01;41.36
46574;BME280;32299;53.366;-1.544;2022-09-13T01:05:36;98566.43;;;16.99;41.35
46574;BME280;32299;53.366;-1.544;2022-09-13T01:08:05;98565.95;;;16.92;41.37
46574;BME280;32299;53.366;-1.544;2022-09-13T01:10:34;98573.81;;;17.15;41.34
46574;BME280;32299;53.366;-1.544;2022-09-13T01:13:05;98570.98;;;16.87;41.30
46574;BME280;32299;53.366;-1.544;2022-09-13T01:15:35;98571.98;;;16.82;41.29
46574;BME280;32299;53.366;-1.544;2022-09-13T01:18:02;98572.45;;;17.27;41.32
46574;BME280;32299;53.366;-1.544;2022-09-13T01:20:42;98573.29;;;17.03;41.41
46574;BME280;32299;53.366;-1.544;2022-09-13T01:23:25;98573.69;;;16.72;41.30
46574;BME280;32299;53.366;-1.544;2022-09-13T01:26:30;98581.11;;;16.66;41.45
46574;BME280;32299;53.366;-1.544;2022-09-13T01:29:18;98588.15;;;16.59;41.45
46574;BME280;32299;53.366;-1.544;2022-09-13T01:31:53;98590.01;;;16.56;41.46
46574;BME280;32299;53.366;-1.544;2022-09-13T01:34:34;98591.15;;;16.80;41.44
46574;BME280;32299;53.366;-1.544;2022-09-13T01:37:17;98582.38;;;16.78;41.42
46574;BME280;32299;53.366;-1.544;2022-09-13T01:40:02;98577.03;;;16.75;41.40
46574;BME280;32299;53.366;-1.544;2022-09-13T01:42:42;98576.82;;;16.70;41.43
46574;BME280;32299;53.366;-1.544;2022-09-13T01:45:20;98575.89;;;16.87;41.40
46574;BME280;32299;53.366;-1.544;2022-09-13T01:47:51;98572.58;;;16.86;41.39
46574;BME280;32299;53.366;-1.544;2022-09-13T01:50:26;98573.27;;;16.82;41.39
46574;BME280;32299;53.366;-1.544;2022-09-13T01:53:00;98576.09;;;16.79;41.36
46574;BME280;32299;53.366;-1.544;2022-09-13T01:55:34;98571.55;;;16.76;41.42
46574;BME280;32299;53.366;-1.544;2022-09-13T01:58:16;98567.48;;;16.52;41.35
46574;BME280;32299;53.366;-1.544;2022-09-13T02:00:50;98562.04;;;16.68;41.39
46574;BME280;32299;53.366;-1.544;2022-09-13T02:03:23;98560.91;;;16.17;41.35
46574;BME280;32299;53.366;-1.544;2022-09-13T02:05:55;98559.24;;;16.62;41.34
46574;BME280;32299;53.366;-1.544;2022-09-13T02:08:31;98564.97;;;16.58;41.38
46574;BME280;32299;53.366;-1.544;2022-09-13T02:11:05;98572.40;;;16.53;41.36
46574;BME280;32299;53.366;-1.544;2022-09-13T02:13:37;98571.69;;;16.51;41.42
46574;BME280;32299;53.366;-1.544;2022-09-13T02:16:09;98565.85;;;16.47;41.40
46574;BME280;32299;53.366;-1.544;2022-09-13T02:18:40;98564.26;;;16.45;41.41
46574;BME280;32299;53.366;-1.544;2022-09-13T02:21:11;98565.87;;;16.43;41.35
46574;BME280;32299;53.366;-1.544;2022-09-13T02:23:44;98567.40;;;16.62;41.42
46574;BME280;32299;53.366;-1.544;2022-09-13T02:26:14;98567.01;;;16.37;41.43
46574;BME280;32299;53.366;-1.544;2022-09-13T02:28:45;98570.98;;;16.37;41.46
46574;BME280;32299;53.366;-1.544;2022-09-13T02:31:16;98569.70;;;16.33;41.43
46574;BME280;32299;53.366;-1.544;2022-09-13T02:33:48;98566.98;;;16.32;41.35
46574;BME280;32299;53.366;-1.544;2022-09-13T02:36:27;98570.08;;;16.07;41.43
46574;BME280;32299;53.366;-1.544;2022-09-13T02:38:59;98563.32;;;16.25;41.48
46574;BME280;32299;53.366;-1.544;2022-09-13T02:41:31;98560.43;;;16.22;41.49
46574;BME280;32299;53.366;-1.544;2022-09-13T02:44:06;98555.48;;;16.19;41.45
46574;BME280;32299;53.366;-1.544;2022-09-13T02:46:50;98557.87;;;16.16;41.42
46574;BME280;32299;53.366;-1.544;2022-09-13T02:49:24;98563.30;;;16.10;41.51
46574;BME280;32299;53.366;-1.544;2022-09-13T02:51:56;98567.12;;;16.09;41.55
46574;BME280;32299;53.366;-1.544;2022-09-13T02:54:31;98570.76;;;16.07;41.55
46574;BME280;32299;53.366;-1.544;2022-09-13T02:57:05;98573.42;;;16.27;41.51
46574;BME280;32299;53.366;-1.544;2022-09-13T02:59:35;98575.97;;;16.01;41.57
46574;BME280;32299;53.366;-1.544;2022-09-13T03:02:05;98577.85;;;16.22;41.58
46574;BME280;32299;53.366;-1.544;2022-09-13T03:04:34;98577.76;;;16.00;41.43
46574;BME280;32299;53.366;-1.544;2022-09-13T03:07:01;98580.43;;;15.97;41.51
46574;BME280;32299;53.366;-1.544;2022-09-13T03:09:29;98578.10;;;15.97;41.48
46574;BME280;32299;53.366;-1.544;2022-09-13T03:12:09;98575.98;;;16.16;41.44
46574;BME280;32299;53.366;-1.544;2022-09-13T03:14:49;98566.51;;;15.87;41.52
46574;BME280;32299;53.366;-1.544;2022-09-13T03:17:33;98564.83;;;15.84;41.54
46574;BME280;32299;53.366;-1.544;2022-09-13T03:20:09;98566.13;;;16.02;41.60
46574;BME280;32299;53.366;-1.544;2022-09-13T03:22:59;98565.63;;;16.01;41.60
46574;BME280;32299;53.366;-1.544;2022-09-13T03:25:40;98566.62;;;15.97;41.62
46574;BME280;32299;53.366;-1.544;2022-09-13T03:28:19;98570.06;;;15.73;41.70
46574;BME280;32299;53.366;-1.544;2022-09-13T03:30:54;98574.88;;;15.74;41.63
46574;BME280;32299;53.366;-1.544;2022-09-13T03:33:29;98580.07;;;15.71;41.61
46574;BME280;32299;53.366;-1.544;2022-09-13T03:36:06;98584.75;;;15.69;41.65
46574;BME280;32299;53.366;-1.544;2022-09-13T03:38:38;98582.13;;;15.66;41.67
46574;BME280;32299;53.366;-1.544;2022-09-13T03:41:09;98581.44;;;15.88;41.64
46574;BME280;32299;53.366;-1.544;2022-09-13T03:43:43;98581.07;;;15.85;41.66
46574;BME280;32299;53.366;-1.544;2022-09-13T03:46:16;98576.99;;;15.82;41.67
46574;BME280;32299;53.366;-1.544;2022-09-13T03:48:46;98571.91;;;16.07;41.73
46574;BME280;32299;53.366;-1.544;2022-09-13T03:51:14;98571.90;;;15.80;41.66
46574;BME280;32299;53.366;-1.544;2022-09-13T03:53:45;98575.59;;;15.80;41.65
46574;BME280;32299;53.366;-1.544;2022-09-13T03:56:15;98576.09;;;15.77;41.70
46574;BME280;32299;53.366;-1.544;2022-09-13T03:58:43;98575.68;;;15.53;41.69
46574;BME280;32299;53.366;-1.544;2022-09-13T04:01:11;98575.57;;;15.75;41.67
46574;BME280;32299;53.366;-1.544;2022-09-13T04:03:39;98578.16;;;15.52;41.67
46574;BME280;32299;53.366;-1.544;2022-09-13T04:06:07;98579.62;;;16.00;41.68
46574;BME280;32299;53.366;-1.544;2022-09-13T04:08:34;98581.74;;;15.49;41.65
46574;BME280;32299;53.366;-1.544;2022-09-13T04:11:01;98583.44;;;15.97;41.60
46574;BME280;32299;53.366;-1.544;2022-09-13T04:13:29;98582.73;;;15.68;41.62
46574;BME280;32299;53.366;-1.544;2022-09-13T04:16:00;98579.76;;;15.68;41.64
46574;BME280;32299;53.366;-1.544;2022-09-13T04:18:27;98577.21;;;15.66;41.61
46574;BME280;32299;53.366;-1.544;2022-09-13T04:20:56;98578.51;;;15.65;41.64
46574;BME280;32299;53.366;-1.544;2022-09-13T04:23:24;98579.03;;;15.41;41.64
46574;BME280;32299;53.366;-1.544;2022-09-13T04:25:52;98581.64;;;15.60;41.55
46574;BME280;32299;53.366;-1.544;2022-09-13T04:28:21;98587.81;;;15.59;41.64
46574;BME280;32299;53.366;-1.544;2022-09-13T04:30:49;98590.57;;;15.84;41.70
46574;BME280;32299;53.366;-1.544;2022-09-13T04:33:16;98588.15;;;15.58;41.61
46574;BME280;32299;53.366;-1.544;2022-09-13T04:35:43;98591.01;;;15.56;41.60
46574;BME280;32299;53.366;-1.544;2022-09-13T04:38:10;98591.03;;;15.79;41.55
46574;BME280;32299;53.366;-1.544;2022-09-13T04:40:38;98593.97;;;15.76;41.70
46574;BME280;32299;53.366;-1.544;2022-09-13T04:43:06;98594.37;;;15.50;41.67
46574;BME280;32299;53.366;-1.544;2022-09-13T04:45:39;98597.01;;;15.46;41.74
46574;BME280;32299;53.366;-1.544;2022-09-13T04:48:07;98595.33;;;15.44;41.80
46574;BME280;32299;53.366;-1.544;2022-09-13T04:50:35;98596.22;;;15.45;41.72
46574;BME280;32299;53.366;-1.544;2022-09-13T04:53:03;98591.68;;;15.45;41.71
46574;BME280;32299;53.366;-1.544;2022-09-13T04:55:30;98591.18;;;15.43;41.69
46574;BME280;32299;53.366;-1.544;2022-09-13T04:57:57;98590.25;;;15.63;41.71
46574;BME280;32299;53.366;-1.544;2022-09-13T05:00:24;98592.75;;;15.38;41.69
46574;BME280;32299;53.366;-1.544;2022-09-13T05:02:54;98596.57;;;15.38;41.72
46574;BME280;32299;53.366;-1.544;2022-09-13T05:05:22;98595.09;;;15.63;41.84
46574;BME280;32299;53.366;-1.544;2022-09-13T05:07:50;98594.65;;;15.44;41.59
46574;BME280;32299;53.366;-1.544;2022-09-13T05:10:18;98588.85;;;15.73;41.66
46574;BME280;32299;53.366;-1.544;2022-09-13T05:12:45;98591.70;;;15.68;41.74
46574;BME280;32299;53.366;-1.544;2022-09-13T05:15:13;98594.33;;;15.63;41.78
46574;BME280;32299;53.366;-1.544;2022-09-13T05:17:41;98591.45;;;15.35;41.76
46574;BME280;32299;53.366;-1.544;2022-09-13T05:20:09;98593.03;;;15.35;41.78
46574;BME280;32299;53.366;-1.544;2022-09-13T05:22:36;98585.27;;;15.30;41.81
46574;BME280;32299;53.366;-1.544;2022-09-13T05:25:04;98583.10;;;15.56;41.77
46574;BME280;32299;53.366;-1.544;2022-09-13T05:27:32;98580.25;;;15.26;41.91
46574;BME280;32299;53.366;-1.544;2022-09-13T05:30:00;98585.23;;;15.52;41.94
46574;BME280;32299;53.366;-1.544;2022-09-13T05:32:27;98584.87;;;15.52;41.89
46574;BME280;32299;53.366;-1.544;2022-09-13T05:34:54;98586.72;;;15.22;41.99
46574;BME280;32299;53.366;-1.544;2022-09-13T05:37:21;98584.12;;;15.20;42.05
46574;BME280;32299;53.366;-1.544;2022-09-13T05:39:48;98581.45;;;15.19;42.10
46574;BME280;32299;53.366;-1.544;2022-09-13T05:42:14;98575.13;;;15.19;42.08
46574;BME280;32299;53.366;-1.544;2022-09-13T05:44:42;98571.36;;;15.18;42.19
46574;BME280;32299;53.366;-1.544;2022-09-13T05:47:12;98574.83;;;15.18;42.22
46574;BME280;32299;53.366;-1.544;2022-09-13T05:49:39;98581.18;;;15.19;42.14
46574;BME280;32299;53.366;-1.544;2022-09-13T05:52:06;98582.44;;;15.44;42.16
46574;BME280;32299;53.366;-1.544;2022-09-13T05:54:34;98590.90;;;15.46;42.09
46574;BME280;32299;53.366;-1.544;2022-09-13T05:57:01;98588.22;;;15.20;42.02
46574;BME280;32299;53.366;-1.544;2022-09-13T05:59:29;98583.17;;;15.20;42.03
46574;BME280;32299;53.366;-1.544;2022-09-13T06:01:57;98579.54;;;15.47;42.13
46574;BME280;32299;53.366;-1.544;2022-09-13T06:04:24;98576.69;;;14.98;42.06
46574;BME280;32299;53.366;-1.544;2022-09-13T06:06:51;98580.45;;;15.20;42.16
46574;BME280;32299;53.366;-1.544;2022-09-13T06:09:18;98587.13;;;15.20;42.12
46574;BME280;32299;53.366;-1.544;2022-09-13T06:11:45;98586.74;;;15.46;42.02
46574;BME280;32299;53.366;-1.544;2022-09-13T06:14:13;98583.05;;;15.47;42.09
46574;BME280;32299;53.366;-1.544;2022-09-13T06:16:40;98580.59;;;15.19;42.12
46574;BME280;32299;53.366;-1.544;2022-09-13T06:19:08;98583.46;;;15.45;42.12
46574;BME280;32299;53.366;-1.544;2022-09-13T06:21:35;98592.44;;;15.45;42.15
46574;BME280;32299;53.366;-1.544;2022-09-13T06:24:03;98599.73;;;15.20;42.21
46574;BME280;32299;53.366;-1.544;2022-09-13T06:26:30;98597.38;;;15.48;42.16
46574;BME280;32299;53.366;-1.544;2022-09-13T06:28:57;98588.44;;;15.21;42.25
46574;BME280;32299;53.366;-1.544;2022-09-13T06:31:26;98584.41;;;15.51;42.25
46574;BME280;32299;53.366;-1.544;2022-09-13T06:33:56;98581.30;;;15.52;42.28
46574;BME280;32299;53.366;-1.544;2022-09-13T06:36:24;98582.13;;;15.24;42.31
46574;BME280;32299;53.366;-1.544;2022-09-13T06:38:51;98589.59;;;15.27;42.33
46574;BME280;32299;53.366;-1.544;2022-09-13T06:41:20;98590.62;;;15.30;42.26
46574;BME280;32299;53.366;-1.544;2022-09-13T06:43:52;98590.33;;;15.31;42.37
46574;BME280;32299;53.366;-1.544;2022-09-13T06:46:20;98589.51;;;15.56;42.57
46574;BME280;32299;53.366;-1.544;2022-09-13T06:48:48;98593.17;;;15.62;42.42
46574;BME280;32299;53.366;-1.544;2022-09-13T06:51:18;98599.06;;;15.40;42.39
46574;BME280;32299;53.366;-1.544;2022-09-13T06:53:47;98610.74;;;15.44;42.44
46574;BME280;32299;53.366;-1.544;2022-09-13T06:56:16;98610.07;;;15.47;42.46
46574;BME280;32299;53.366;-1.544;2022-09-13T06:58:46;98606.16;;;15.50;42.44
46574;BME280;32299;53.366;-1.544;2022-09-13T07:01:15;98604.95;;;15.79;42.50
46574;BME280;32299;53.366;-1.544;2022-09-13T07:03:43;98600.11;;;15.55;42.57
46574;BME280;32299;53.366;-1.544;2022-09-13T07:06:12;98594.80;;;15.59;42.54
46574;BME280;32299;53.366;-1.544;2022-09-13T07:08:41;98590.09;;;15.62;42.66
46574;BME280;32299;53.366;-1.544;2022-09-13T07:11:10;98587.98;;;15.69;42.62
46574;BME280;32299;53.366;-1.544;2022-09-13T07:13:38;98588.72;;;15.74;42.65
46574;BME280;32299;53.366;-1.544;2022-09-13T07:16:08;98590.95;;;15.79;42.57
46574;BME280;32299;53.366;-1.544;2022-09-13T07:18:37;98591.75;;;15.62;42.67
46574;BME280;32299;53.366;-1.544;2022-09-13T07:21:05;98589.54;;;15.88;42.75
46574;BME280;32299;53.366;-1.544;2022-09-13T07:23:34;98585.96;;;15.71;42.78
46574;BME280;32299;53.366;-1.544;2022-09-13T07:26:03;98586.87;;;15.77;42.78
46574;BME280;32299;53.366;-1.544;2022-09-13T07:28:33;98586.13;;;15.85;42.71
46574;BME280;32299;53.366;-1.544;2022-09-13T07:31:05;98587.11;;;16.11;42.89
46574;BME280;32299;53.366;-1.544;2022-09-13T07:33:33;98591.52;;;15.95;42.82
46574;BME280;32299;53.366;-1.544;2022-09-13T07:36:02;98592.63;;;16.02;42.79
46574;BME280;32299;53.366;-1.544;2022-09-13T07:38:29;98593.95;;;16.11;42.81
46574;BME280;32299;53.366;-1.544;2022-09-13T07:40:57;98593.93;;;16.17;42.69
46574;BME280;32299;53.366;-1.544;2022-09-13T07:43:24;98594.87;;;16.24;42.83
46574;BME280;32299;53.366;-1.544;2022-09-13T07:46:00;98599.02;;;16.10;42.77
46574;BME280;32299;53.366;-1.544;2022-09-13T07:48:29;98600.18;;;16.36;42.78
46574;BME280;32299;53.366;-1.544;2022-09-13T07:50:59;98609.24;;;16.40;42.74
46574;BME280;32299;53.366;-1.544;2022-09-13T07:53:27;98614.67;;;16.49;42.79
46574;BME280;32299;53.366;-1.544;2022-09-13T07:56:00;98615.39;;;16.58;42.77
46574;BME280;32299;53.366;-1.544;2022-09-13T07:58:27;98615.16;;;16.65;42.73
46574;BME280;32299;53.366;-1.544;2022-09-13T08:01:03;98612.86;;;16.71;42.65
46574;BME280;32299;53.366;-1.544;2022-09-13T08:03:30;98612.30;;;16.77;42.63
46574;BME280;32299;53.366;-1.544;2022-09-13T08:05:58;98609.99;;;16.60;42.67
46574;BME280;32299;53.366;-1.544;2022-09-13T08:08:25;98606.60;;;16.66;42.59
46574;BME280;32299;53.366;-1.544;2022-09-13T08:10:52;98608.81;;;16.93;42.52
46574;BME280;32299;53.366;-1.544;2022-09-13T08:13:20;98618.60;;;16.98;42.57
46574;BME280;32299;53.366;-1.544;2022-09-13T08:15:48;98617.21;;;16.53;42.58
46574;BME280;32299;53.366;-1.544;2022-09-13T08:18:15;98611.23;;;17.06;42.61
46574;BME280;32299;53.366;-1.544;2022-09-13T08:20:42;98600.98;;;17.12;42.51
46574;BME280;32299;53.366;-1.544;2022-09-13T08:23:10;98599.07;;;16.67;42.54
46574;BME280;32299;53.366;-1.544;2022-09-13T08:25:39;98597.76;;;16.97;42.54
46574;BME280;32299;53.366;-1.544;2022-09-13T08:28:07;98594.08;;;16.75;42.52
46574;BME280;32299;53.366;-1.544;2022-09-13T08:30:35;98593.55;;;16.81;42.49
46574;BME280;32299;53.366;-1.544;2022-09-13T08:33:03;98589.50;;;16.86;42.39
46574;BME280;32299;53.366;-1.544;2022-09-13T08:35:31;98592.18;;;16.89;42.42
46574;BME280;32299;53.366;-1.544;2022-09-13T08:37:59;98598.66;;;16.96;42.38
46574;BME280;32299;53.366;-1.544;2022-09-13T08:40:28;98600.66;;;17.01;42.29
46574;BME280;32299;53.366;-1.544;2022-09-13T08:43:03;98599.14;;;17.04;42.35
46574;BME280;32299;53.366;-1.544;2022-09-13T08:45:32;98600.53;;;17.34;42.36
46574;BME280;32299;53.366;-1.544;2022-09-13T08:48:03;98599.98;;;17.14;42.34
46574;BME280;32299;53.366;-1.544;2022-09-13T08:50:33;98589.82;;;17.19;42.39
46574;BME280;32299;53.366;-1.544;2022-09-13T08:53:14;98583.87;;;17.24;42.36
46574;BME280;32299;53.366;-1.544;2022-09-13T08:55:50;98590.02;;;17.26;42.36
46574;BME280;32299;53.366;-1.544;2022-09-13T08:58:37;98597.54;;;17.10;42.39
46574;BME280;32299;53.366;-1.544;2022-09-13T09:01:16;98598.05;;;17.32;42.07
46574;BME280;32299;53.366;-1.544;2022-09-13T09:03:52;98601.44;;;17.38;41.49
46574;BME280;32299;53.366;-1.544;2022-09-13T09:06:22;98603.10;;;17.42;41.72
46574;BME280;32299;53.366;-1.544;2022-09-13T09:08:53;98606.17;;;17.50;41.67
46574;BME280;32299;53.366;-1.544;2022-09-13T09:11:30;98610.53;;;17.63;41.35
46574;BME280;32299;53.366;-1.544;2022-09-13T09:14:04;98612.28;;;17.66;41.51
46574;BME280;32299;53.366;-1.544;2022-09-13T09:16:37;98616.56;;;17.47;40.97
46574;BME280;32299;53.366;-1.544;2022-09-13T09:19:14;98610.79;;;17.74;41.25
46574;BME280;32299;53.366;-1.544;2022-09-13T09:21:44;98604.46;;;17.80;41.09
46574;BME280;32299;53.366;-1.544;2022-09-13T09:24:18;98599.73;;;17.63;41.27
46574;BME280;32299;53.366;-1.544;2022-09-13T09:26:47;98605.28;;;17.90;41.21
46574;BME280;32299;53.366;-1.544;2022-09-13T09:29:17;98609.66;;;17.74;41.12
46574;BME280;32299;53.366;-1.544;2022-09-13T09:31:53;98608.13;;;17.81;41.51
46574;BME280;32299;53.366;-1.544;2022-09-13T09:34:31;98605.80;;;17.84;41.44
46574;BME280;32299;53.366;-1.544;2022-09-13T09:37:03;98611.67;;;17.92;41.34
46574;BME280;32299;53.366;-1.544;2022-09-13T09:39:33;98615.52;;;17.97;41.36
46574;BME280;32299;53.366;-1.544;2022-09-13T09:42:00;98609.26;;;17.77;41.53
46574;BME280;32299;53.366;-1.544;2022-09-13T09:44:28;98612.26;;;18.10;41.41
46574;BME280;32299;53.366;-1.544;2022-09-13T09:47:02;98610.29;;;18.17;41.12
46574;BME280;32299;53.366;-1.544;2022-09-13T09:49:34;98608.38;;;18.22;41.02
46574;BME280;32299;53.366;-1.544;2022-09-13T09:52:03;98618.11;;;18.02;41.13
46574;BME280;32299;53.366;-1.544;2022-09-13T09:54:33;98616.73;;;18.38;41.46
46574;BME280;32299;53.366;-1.544;2022-09-13T09:57:01;98610.70;;;18.22;41.47
46574;BME280;32299;53.366;-1.544;2022-09-13T09:59:30;98609.01;;;18.33;41.33
46574;BME280;32299;53.366;-1.544;2022-09-13T10:01:58;98606.52;;;18.44;40.86
46574;BME280;32299;53.366;-1.544;2022-09-13T10:04:26;98607.35;;;18.51;40.60
46574;BME280;32299;53.366;-1.544;2022-09-13T10:07:09;98607.78;;;18.60;40.82
46574;BME280;32299;53.366;-1.544;2022-09-13T10:09:38;98606.14;;;18.72;41.07
46574;BME280;32299;53.366;-1.544;2022-09-13T10:12:05;98608.97;;;18.79;40.25
46574;BME280;32299;53.366;-1.544;2022-09-13T10:14:36;98609.20;;;18.86;40.20
46574;BME280;32299;53.366;-1.544;2022-09-13T10:17:14;98608.47;;;18.77;40.57
46574;BME280;32299;53.366;-1.544;2022-09-13T10:19:52;98608.05;;;18.87;40.18
46574;BME280;32299;53.366;-1.544;2022-09-13T10:22:20;98598.63;;;18.73;40.60
46574;BME280;32299;53.366;-1.544;2022-09-13T10:24:48;98598.17;;;19.15;41.00
46574;BME280;32299;53.366;-1.544;2022-09-13T10:27:22;98606.07;;;19.30;41.39
46574;BME280;32299;53.366;-1.544;2022-09-13T10:29:54;98601.77;;;19.23;41.29
46574;BME280;32299;53.366;-1.544;2022-09-13T10:32:23;98604.73;;;19.38;41.38
46574;BME280;32299;53.366;-1.544;2022-09-13T10:34:51;98602.95;;;19.77;41.65
46574;BME280;32299;53.366;-1.544;2022-09-13T10:37:24;98597.32;;;19.69;41.74
46574;BME280;32299;53.366;-1.544;2022-09-13T10:39:59;98597.90;;;19.80;41.22
46574;BME280;32299;53.366;-1.544;2022-09-13T10:42:28;98597.53;;;19.94;41.35
46574;BME280;32299;53.366;-1.544;2022-09-13T10:44:58;98596.23;;;20.02;40.17
46574;BME280;32299;53.366;-1.544;2022-09-13T10:47:30;98595.55;;;20.14;40.38
46574;BME280;32299;53.366;-1.544;2022-09-13T10:50:11;98596.05;;;20.24;39.82
46574;BME280;32299;53.366;-1.544;2022-09-13T10:52:43;98598.57;;;20.32;40.11
46574;BME280;32299;53.366;-1.544;2022-09-13T10:55:24;98595.83;;;20.20;40.56
46574;BME280;32299;53.366;-1.544;2022-09-13T10:57:52;98592.08;;;20.03;39.39
46574;BME280;32299;53.366;-1.544;2022-09-13T11:00:22;98597.50;;;20.40;40.17
46574;BME280;32299;53.366;-1.544;2022-09-13T11:03:03;98593.00;;;20.55;40.11
46574;BME280;32299;53.366;-1.544;2022-09-13T11:05:40;98592.59;;;20.37;39.89
46574;BME280;32299;53.366;-1.544;2022-09-13T11:08:18;98592.00;;;20.71;40.04
46574;BME280;32299;53.366;-1.544;2022-09-13T11:10:54;98586.35;;;20.55;39.72
46574;BME280;32299;53.366;-1.544;2022-09-13T11:13:33;98578.47;;;20.34;38.64
46574;BME280;32299;53.366;-1.544;2022-09-13T11:16:08;98575.76;;;20.62;38.60
46574;BME280;32299;53.366;-1.544;2022-09-13T11:18:53;98573.94;;;20.69;38.69
46574;BME280;32299;53.366;-1.544;2022-09-13T11:21:34;98569.54;;;20.97;39.52
46574;BME280;32299;53.366;-1.544;2022-09-13T11:24:18;98566.25;;;21.04;39.16
46574;BME280;32299;53.366;-1.544;2022-09-13T11:26:58;98562.38;;;20.85;38.94
46574;BME280;32299;53.366;-1.544;2022-09-13T11:29:41;98560.26;;;20.97;39.75
46574;BME280;32299;53.366;-1.544;2022-09-13T11:32:23;98560.10;;;21.05;39.11
46574;BME280;32299;53.366;-1.544;2022-09-13T11:35:11;98557.69;;;21.13;39.47
46574;BME280;32299;53.366;-1.544;2022-09-13T11:37:50;98548.78;;;21.24;39.62
46574;BME280;32299;53.366;-1.544;2022-09-13T11:40:30;98545.16;;;21.16;39.95
46574;BME280;32299;53.366;-1.544;2022-09-13T11:43:08;98549.81;;;21.44;38.90
46574;BME280;32299;53.366;-1.544;2022-09-13T11:45:40;98551.75;;;21.60;39.51
46574;BME280;32299;53.366;-1.544;2022-09-13T11:48:23;98543.52;;;21.42;40.61
46574;BME280;32299;53.366;-1.544;2022-09-13T11:51:03;98540.88;;;21.89;40.24
46574;BME280;32299;53.366;-1.544;2022-09-13T11:53:47;98540.47;;;21.72;38.23
46574;BME280;32299;53.366;-1.544;2022-09-13T11:56:22;98538.09;;;21.91;39.18
46574;BME280;32299;53.366;-1.544;2022-09-13T11:58:53;98532.49;;;22.31;39.38
46574;BME280;32299;53.366;-1.544;2022-09-13T12:01:27;98535.54;;;22.15;39.07
46574;BME280;32299;53.366;-1.544;2022-09-13T12:04:00;98538.75;;;22.17;38.21
46574;BME280;32299;53.366;-1.544;2022-09-13T12:06:32;98539.93;;;22.26;38.22
46574;BME280;32299;53.366;-1.544;2022-09-13T12:09:05;98537.27;;;22.35;38.89
46574;BME280;32299;53.366;-1.544;2022-09-13T12:11:35;98538.41;;;22.51;39.32
46574;BME280;32299;53.366;-1.544;2022-09-13T12:14:06;98536.18;;;22.63;38.27
46574;BME280;32299;53.366;-1.544;2022-09-13T12:16:40;98526.07;;;22.63;36.78
46574;BME280;32299;53.366;-1.544;2022-09-13T12:19:15;98518.78;;;22.53;38.20
46574;BME280;32299;53.366;-1.544;2022-09-13T12:21:46;98517.11;;;22.73;38.48
46574;BME280;32299;53.366;-1.544;2022-09-13T12:24:17;98515.13;;;23.02;36.76
46574;BME280;32299;53.366;-1.544;2022-09-13T12:26:51;98520.23;;;22.85;37.61
46574;BME280;32299;53.366;-1.544;2022-09-13T12:29:27;98523.43;;;23.23;38.30
46574;BME280;32299;53.366;-1.544;2022-09-13T12:31:59;98518.90;;;23.02;39.28
46574;BME280;32299;53.366;-1.544;2022-09-13T12:34:39;98519.23;;;23.57;39.62
46574;BME280;32299;53.366;-1.544;2022-09-13T12:37:16;98514.97;;;23.56;39.37
46574;BME280;32299;53.366;-1.544;2022-09-13T12:40:14;98513.66;;;23.77;37.68
46574;BME280;32299;53.366;-1.544;2022-09-13T12:42:55;98508.08;;;23.87;36.52
46574;BME280;32299;53.366;-1.544;2022-09-13T12:45:41;98512.19;;;23.91;36.98
46574;BME280;32299;53.366;-1.544;2022-09-13T12:48:23;98520.81;;;23.91;37.72
46574;BME280;32299;53.366;-1.544;2022-09-13T12:51:05;98521.71;;;23.97;34.74
46574;BME280;32299;53.366;-1.544;2022-09-13T12:54:18;98517.48;;;25.02;36.39
46574;BME280;32299;53.366;-1.544;2022-09-13T12:56:59;98516.97;;;24.24;35.10
46574;BME280;32299;53.366;-1.544;2022-09-13T12:59:38;98519.93;;;24.51;36.81
46574;BME280;32299;53.366;-1.544;2022-09-13T13:02:25;98519.78;;;24.77;36.99
46574;BME280;32299;53.366;-1.544;2022-09-13T13:04:56;98516.46;;;25.00;35.54
46574;BME280;32299;53.366;-1.544;2022-09-13T13:07:25;98518.47;;;24.95;36.07
46574;BME280;32299;53.366;-1.544;2022-09-13T13:09:55;98513.51;;;25.36;35.33
46574;BME280;32299;53.366;-1.544;2022-09-13T13:12:29;98510.79;;;25.52;34.19
46574;BME280;32299;53.366;-1.544;2022-09-13T13:14:58;98515.21;;;25.38;35.29